Saint Stephens, Nebraska
Current Conditions -  °F | °C
As of 8:53 PM on Wednesday 26 Nov 2014 (Local Time) from KHSI Reporting Station
Clear Clear  
Wind Chill: 17°   Ceiling: Unl
Heat Index: 25°   Visibility: 10mi
Dew Point: 17°   Wind: 7mph
Humidity: 72%   Direction: 350°N
Pressure: 30.39"   Gusts: NA
Location:  40.2635°N, 98.2176°W
Report Text: KHSI 270253Z AUTO 35006KT 10SM CLR M04/M08 A3039 RMK AO2 SLP317 T10391083 51018
Loading
Personal Weather Stations






























Interactive Weather Map New forecast layout! Learn more

10-Day Weather Forecast

Advertisements
Track Severe Weather on mobile